Portsmouth, Virginia
Current Conditions -  °F | °C
As of 10:59 PM on Saturday 25 Oct 2014 (Local Time) from KNGU Reporting Station
Clear Clear  
Wind Chill: 63°   Ceiling: Unl
Heat Index: 63°   Visibility: 10mi
Dew Point: 46°   Wind: 12mph
Humidity: 54%   Direction: 210°SSW
Pressure: 29.81"   Gusts: NA
Location:  36.83°N, 76.3°W
Report Text: KNGU 260259Z 21010KT 10SM CLR 17/08 A2981 RMK AO2 SLP093 T01720078 58013 $
Loading
Personal Weather Stations






























Interactive Weather Map
Tropical Storm Tracking
New forecast layout! Learn more

10-Day Weather Forecast

Advertisements
Track Severe Weather on mobile